Flight Track Log - Related Links

Times and Time Zones

All times are in EDT time to prevent confusion due to time zone crossing. See the N143DE flight status page for this flight to view local times or setup timezone preferences in your user account.


Time Position Orientation Groundspeed Altitude Reporting Facility
EDT Latitude Longitude Course Direction KTS MPH feet Rate Location/Type
Wed 03:43:07 PM 40.6683 -83.9658 156° South 134 154 3,800  Level Indianapolis Center
Wed 03:44:09 PM 40.6208 -83.9383 156° South 184 212 5,200 1,645 Climbing Indianapolis Center
Wed 03:45:11 PM 40.5636 -83.9069 157° South 187 215 7,200 1,887 Climbing Indianapolis Center
Wed 03:46:13 PM 40.5131 -83.8772 156° South 195 224 9,100 1,790 Climbing Indianapolis Center
Wed 03:47:15 PM 40.4594 -83.8594 166° South 195 224 10,900 1,694 Climbing Indianapolis Center
Wed 03:48:17 PM 40.4050 -83.8553 177° South 194 223 12,600 1,403 Climbing Indianapolis Center
Wed 03:49:19 PM 40.3489 -83.8414 169° South 202 232 13,800 1,210 Climbing Indianapolis Center
Wed 03:50:21 PM 40.2917 -83.8228 166° South 209 241 15,100 1,210 Climbing Indianapolis Center
Wed 03:51:23 PM 40.2333 -83.8103 171° South 210 242 16,300 1,210 Climbing Indianapolis Center
Wed 03:52:25 PM 40.1644 -83.7997 173° South 213 245 17,600 1,113 Climbing Indianapolis Center
Wed 03:53:27 PM 40.1069 -83.7911 173° South 207 238 18,600 919 Climbing Indianapolis Center
Wed 03:54:29 PM 40.0483 -83.7689 164° South 216 249 19,500 864 Climbing Indianapolis Center
Wed 03:55:32 PM 39.9911 -83.7439 161° South 216 249 20,400 864 Climbing Indianapolis Center
Wed 03:56:34 PM 39.9356 -83.7153 158° South 214 246 21,300 823 Climbing Indianapolis Center
Wed 03:57:36 PM 39.8794 -83.6861 158° South 216 249 22,100 871 Climbing Indianapolis Center
Wed 03:58:38 PM 39.8131 -83.6536 159° South 218 251 23,100 774 Climbing Indianapolis Center
Wed 03:59:40 PM 39.7558 -83.6267 160° South 219 252 23,700 629 Climbing Indianapolis Center
Wed 04:00:42 PM 39.6981 -83.6008 161° South 219 252 24,400 629 Climbing Indianapolis Center
Wed 04:01:44 PM 39.6383 -83.5753 162° South 223 257 25,000 387 Climbing Indianapolis Center
Wed 04:02:46 PM 39.5764 -83.5475 161° South 229 264 25,200 48 Climbing Indianapolis Center
Wed 04:03:48 PM 39.4947 -83.5106 161° South 261 300 25,100 -48 Descending Indianapolis Center
Wed 04:04:50 PM 39.4222 -83.4772 160° South 272 313 25,100  Level Indianapolis Center
Wed 04:05:52 PM 39.3492 -83.4425 160° South 279 321 25,100  Level Indianapolis Center
Wed 04:06:54 PM 39.2728 -83.4089 161° South 285 328 25,100  Level Indianapolis Center
Wed 04:07:56 PM 39.1981 -83.3753 161° South 282 325 25,100  Level Indianapolis Center
Wed 04:08:58 PM 39.1233 -83.3394 160° South 286 329 25,100  Level Indianapolis Center
Wed 04:10:00 PM 39.0483 -83.3053 161° South 284 327 25,100  Level Indianapolis Center
Wed 04:11:02 PM 38.9603 -83.2658 161° South 286 329 25,100  Level Indianapolis Center
Wed 04:12:05 PM 38.8853 -83.2325 161° South 284 327 25,100  Level Indianapolis Center
Wed 04:13:07 PM 38.8086 -83.1994 161° South 286 329 25,100  Level Indianapolis Center
Wed 04:14:09 PM 38.7347 -83.1644 160° South 286 329 25,100  Level Indianapolis Center
Wed 04:15:11 PM 38.6586 -83.1311 161° South 289 333 25,100  Level Indianapolis Center
Wed 04:16:13 PM 38.5736 -83.0931 161° South 287 330 25,100  Level Indianapolis Center
Wed 04:18:17 PM 38.4219 -83.0258 161° South 288 331 25,100  Level Indianapolis Center
Wed 04:19:19 PM 38.3458 -82.9936 162° South 288 331 25,100  Level Indianapolis Center
Wed 04:20:21 PM 38.2681 -82.9600 161° South 294 338 25,100  Level Indianapolis Center
Wed 04:21:23 PM 38.1786 -82.9186 160° South 293 337 25,100  Level Indianapolis Center
Wed 04:22:25 PM 38.1000 -82.8933 166° South 291 335 25,100 -145 Level Indianapolis Center
Wed 04:23:27 PM 38.0194 -82.8686 166° South 294 338 24,800 -435 Descending Indianapolis Center
Wed 04:24:29 PM 37.9353 -82.8456 168° South 305 351 24,200 -290 Descending Indianapolis Center
Wed 04:25:31 PM 37.8531 -82.8192 166° South 304 350 24,200 -484 Level Indianapolis Center
Wed 04:26:33 PM 37.7589 -82.7903 166° South 299 344 23,200 -1,161 Descending Indianapolis Center
Wed 04:27:35 PM 37.6775 -82.7658 167° South 299 344 21,800 -1,258 Descending Indianapolis Center
Wed 04:28:37 PM 37.5958 -82.7419 167° South 301 346 20,600 -1,210 Descending Indianapolis Center
Wed 04:29:39 PM 37.5197 -82.7183 166° South 286 329 19,300 -1,355 Descending Indianapolis Center
Wed 04:30:41 PM 37.4453 -82.6964 167° South 274 315 17,800 -1,355 Descending Indianapolis Center
Wed 04:31:43 PM 37.3706 -82.6750 167° South 275 316 16,500 -1,392 Descending Indianapolis Center
Wed 04:32:46 PM 37.2861 -82.6489 166° South 268 308 14,900 -1,536 Descending Indianapolis Center
Wed 04:33:48 PM 37.2131 -82.6283 167° South 267 307 13,300 -1,548 Descending Indianapolis Center
Wed 04:34:50 PM 37.1417 -82.6069 167° South 264 304 11,700 -1,113 Descending Indianapolis Center
Wed 04:35:52 PM 37.0728 -82.5853 166° South 257 296 11,000 -339 Descending Indianapolis Center
Wed 04:36:54 PM 37.0167 -82.5669 165° South 219 252 11,000  Level Indianapolis Center
Wed 04:37:56 PM 36.9631 -82.5514 167° South 201 231 11,000  Level Indianapolis Center
Wed 04:38:58 PM 36.8986 -82.5333 167° South 201 231 11,000  Level Indianapolis Center
Wed 04:39:46 PM 36.8603 -82.5236 169° South 202 232 11,000 -278 Level Atlanta Center
Wed 04:40:46 PM 36.8036 -82.5067 167° South 202 232 10,500 -950 Descending Atlanta Center
Wed 04:41:46 PM 36.7408 -82.4897 168° South 221 254 9,100 -1,250 Descending Atlanta Center
Wed 04:42:46 PM 36.6922 -82.4389 140° Southeast 215 247 8,000 -1,100 Descending Atlanta Center
Wed 04:43:46 PM 36.6397 -82.4139 159° South 208 239 6,900 -1,150 Descending Atlanta Center
Wed 04:44:46 PM 36.5833 -82.4075 175° South 203 234 5,700 -1,200 Descending Atlanta Center
Wed 04:47:00 PM 36.4752 -82.4074 180° South  Level Estimated
Wed 04:54:00 PM 36.4752 -82.4074 180° South  Level Estimated
Wed 04:55:00 PM 36.4752 -82.4074 180° South  Level Estimated
Wed 04:56:00 PM 36.4752 -82.4074 180° South  Level Estimated

Login

Don't have an account? Register now (free) for customized features, flight alerts, and more!